sensor_id;sensor_type;location;lat;lon;timestamp;temperature;humidity
7472;DHT22;3777;48.722;8.110;2022-08-19T00:00:50;21.40;99.90
7472;DHT22;3777;48.722;8.110;2022-08-19T00:03:17;21.40;99.90
7472;DHT22;3777;48.722;8.110;2022-08-19T00:05:45;21.30;99.90
7472;DHT22;3777;48.722;8.110;2022-08-19T00:08:12;21.30;99.90
7472;DHT22;3777;48.722;8.110;2022-08-19T00:10:39;21.30;99.90
7472;DHT22;3777;48.722;8.110;2022-08-19T00:13:06;21.30;99.90
7472;DHT22;3777;48.722;8.110;2022-08-19T00:15:33;21.40;99.90
7472;DHT22;3777;48.722;8.110;2022-08-19T00:18:00;21.50;99.90
7472;DHT22;3777;48.722;8.110;2022-08-19T00:20:27;21.40;99.90
7472;DHT22;3777;48.722;8.110;2022-08-19T00:22:56;21.50;99.90
7472;DHT22;3777;48.722;8.110;2022-08-19T00:25:23;21.50;99.90
7472;DHT22;3777;48.722;8.110;2022-08-19T00:27:50;21.50;99.90
7472;DHT22;3777;48.722;8.110;2022-08-19T00:30:17;21.50;99.90
7472;DHT22;3777;48.722;8.110;2022-08-19T00:32:44;21.50;99.90
7472;DHT22;3777;48.722;8.110;2022-08-19T00:35:11;21.50;99.90
7472;DHT22;3777;48.722;8.110;2022-08-19T00:37:38;21.50;99.90
7472;DHT22;3777;48.722;8.110;2022-08-19T00:40:12;21.60;99.90
7472;DHT22;3777;48.722;8.110;2022-08-19T00:42:39;21.60;99.90
7472;DHT22;3777;48.722;8.110;2022-08-19T00:45:11;21.60;99.90
7472;DHT22;3777;48.722;8.110;2022-08-19T00:47:39;21.60;99.90
7472;DHT22;3777;48.722;8.110;2022-08-19T00:50:09;21.60;99.90
7472;DHT22;3777;48.722;8.110;2022-08-19T00:52:40;21.60;99.90
7472;DHT22;3777;48.722;8.110;2022-08-19T00:55:14;21.60;99.90
7472;DHT22;3777;48.722;8.110;2022-08-19T00:57:47;21.60;99.90
7472;DHT22;3777;48.722;8.110;2022-08-19T01:00:18;21.60;99.90
7472;DHT22;3777;48.722;8.110;2022-08-19T01:02:46;21.50;99.90
7472;DHT22;3777;48.722;8.110;2022-08-19T01:05:16;21.40;99.90
7472;DHT22;3777;48.722;8.110;2022-08-19T01:07:47;21.20;99.90
7472;DHT22;3777;48.722;8.110;2022-08-19T01:10:19;21.20;99.90
7472;DHT22;3777;48.722;8.110;2022-08-19T01:12:47;21.10;99.90
7472;DHT22;3777;48.722;8.110;2022-08-19T01:15:17;21.10;99.90
7472;DHT22;3777;48.722;8.110;2022-08-19T01:17:45;21.10;99.90
7472;DHT22;3777;48.722;8.110;2022-08-19T01:20:16;21.20;99.90
7472;DHT22;3777;48.722;8.110;2022-08-19T01:22:48;21.30;99.90
7472;DHT22;3777;48.722;8.110;2022-08-19T01:25:17;21.30;99.90
7472;DHT22;3777;48.722;8.110;2022-08-19T01:27:47;21.30;99.90
7472;DHT22;3777;48.722;8.110;2022-08-19T01:30:18;21.40;99.90
7472;DHT22;3777;48.722;8.110;2022-08-19T01:32:45;21.40;99.90
7472;DHT22;3777;48.722;8.110;2022-08-19T01:35:14;21.50;99.90
7472;DHT22;3777;48.722;8.110;2022-08-19T01:37:51;21.50;99.90
7472;DHT22;3777;48.722;8.110;2022-08-19T01:40:20;21.40;99.90
7472;DHT22;3777;48.722;8.110;2022-08-19T01:42:47;21.50;99.90
7472;DHT22;3777;48.722;8.110;2022-08-19T01:45:15;21.40;99.90
7472;DHT22;3777;48.722;8.110;2022-08-19T01:47:42;21.40;99.90
7472;DHT22;3777;48.722;8.110;2022-08-19T01:50:10;21.40;99.90
7472;DHT22;3777;48.722;8.110;2022-08-19T01:52:40;21.40;99.90
7472;DHT22;3777;48.722;8.110;2022-08-19T01:55:12;21.40;99.90
7472;DHT22;3777;48.722;8.110;2022-08-19T01:57:41;21.40;99.90
7472;DHT22;3777;48.722;8.110;2022-08-19T02:00:12;21.40;99.90
7472;DHT22;3777;48.722;8.110;2022-08-19T02:02:39;21.40;99.90
7472;DHT22;3777;48.722;8.110;2022-08-19T02:05:07;21.40;99.90
7472;DHT22;3777;48.722;8.110;2022-08-19T02:07:34;21.40;99.90
7472;DHT22;3777;48.722;8.110;2022-08-19T02:10:02;21.30;99.90
7472;DHT22;3777;48.722;8.110;2022-08-19T02:12:31;21.40;99.90
7472;DHT22;3777;48.722;8.110;2022-08-19T02:14:58;21.30;99.90
7472;DHT22;3777;48.722;8.110;2022-08-19T02:17:26;21.20;99.90
7472;DHT22;3777;48.722;8.110;2022-08-19T02:19:54;21.30;99.90
7472;DHT22;3777;48.722;8.110;2022-08-19T02:22:22;21.30;99.90
7472;DHT22;3777;48.722;8.110;2022-08-19T02:24:51;21.40;99.90
7472;DHT22;3777;48.722;8.110;2022-08-19T02:27:18;21.40;99.90
7472;DHT22;3777;48.722;8.110;2022-08-19T02:29:47;21.50;99.90
7472;DHT22;3777;48.722;8.110;2022-08-19T02:32:15;21.50;99.90
7472;DHT22;3777;48.722;8.110;2022-08-19T02:34:42;21.50;99.90
7472;DHT22;3777;48.722;8.110;2022-08-19T02:37:09;21.50;99.90
7472;DHT22;3777;48.722;8.110;2022-08-19T02:39:56;21.50;99.90
7472;DHT22;3777;48.722;8.110;2022-08-19T02:42:22;21.40;99.90
7472;DHT22;3777;48.722;8.110;2022-08-19T02:44:51;21.30;99.90
7472;DHT22;3777;48.722;8.110;2022-08-19T02:47:18;21.20;99.90
7472;DHT22;3777;48.722;8.110;2022-08-19T02:49:45;21.20;99.90
7472;DHT22;3777;48.722;8.110;2022-08-19T02:52:15;21.30;99.90
7472;DHT22;3777;48.722;8.110;2022-08-19T02:54:42;21.20;99.90
7472;DHT22;3777;48.722;8.110;2022-08-19T02:57:10;21.20;99.90
7472;DHT22;3777;48.722;8.110;2022-08-19T02:59:37;21.00;99.90
7472;DHT22;3777;48.722;8.110;2022-08-19T03:02:06;20.90;99.90
7472;DHT22;3777;48.722;8.110;2022-08-19T03:04:33;21.00;99.90
7472;DHT22;3777;48.722;8.110;2022-08-19T03:07:00;21.10;99.90
7472;DHT22;3777;48.722;8.110;2022-08-19T03:09:27;21.20;99.90
7472;DHT22;3777;48.722;8.110;2022-08-19T03:11:55;21.30;99.90
7472;DHT22;3777;48.722;8.110;2022-08-19T03:14:22;21.40;99.90
7472;DHT22;3777;48.722;8.110;2022-08-19T03:16:51;21.50;99.90
7472;DHT22;3777;48.722;8.110;2022-08-19T03:19:20;21.50;99.90
7472;DHT22;3777;48.722;8.110;2022-08-19T03:21:48;21.60;99.90
7472;DHT22;3777;48.722;8.110;2022-08-19T03:24:15;21.60;99.90
7472;DHT22;3777;48.722;8.110;2022-08-19T03:26:51;21.60;99.90
7472;DHT22;3777;48.722;8.110;2022-08-19T03:29:20;21.70;99.90
7472;DHT22;3777;48.722;8.110;2022-08-19T03:31:47;21.70;99.90
7472;DHT22;3777;48.722;8.110;2022-08-19T03:34:19;21.70;99.90
7472;DHT22;3777;48.722;8.110;2022-08-19T03:36:46;21.80;99.90
7472;DHT22;3777;48.722;8.110;2022-08-19T03:39:14;21.80;99.90
7472;DHT22;3777;48.722;8.110;2022-08-19T03:41:43;21.80;99.90
7472;DHT22;3777;48.722;8.110;2022-08-19T03:44:10;21.70;99.90
7472;DHT22;3777;48.722;8.110;2022-08-19T03:46:37;21.60;99.90
7472;DHT22;3777;48.722;8.110;2022-08-19T03:49:04;21.50;99.90
7472;DHT22;3777;48.722;8.110;2022-08-19T03:51:36;21.40;99.90
7472;DHT22;3777;48.722;8.110;2022-08-19T03:54:06;21.40;99.90
7472;DHT22;3777;48.722;8.110;2022-08-19T03:56:34;21.40;99.90
7472;DHT22;3777;48.722;8.110;2022-08-19T03:59:03;21.30;99.90
7472;DHT22;3777;48.722;8.110;2022-08-19T04:01:30;21.20;99.90
7472;DHT22;3777;48.722;8.110;2022-08-19T04:03:58;21.20;99.90
7472;DHT22;3777;48.722;8.110;2022-08-19T04:06:28;21.10;99.90
7472;DHT22;3777;48.722;8.110;2022-08-19T04:08:58;21.10;99.90
7472;DHT22;3777;48.722;8.110;2022-08-19T04:11:28;21.20;99.90
7472;DHT22;3777;48.722;8.110;2022-08-19T04:13:56;21.20;99.90
7472;DHT22;3777;48.722;8.110;2022-08-19T04:16:25;21.20;99.90
7472;DHT22;3777;48.722;8.110;2022-08-19T04:18:54;21.20;99.90
7472;DHT22;3777;48.722;8.110;2022-08-19T04:21:24;21.20;99.90
7472;DHT22;3777;48.722;8.110;2022-08-19T04:23:51;21.30;99.90
7472;DHT22;3777;48.722;8.110;2022-08-19T04:26:22;21.30;99.90
7472;DHT22;3777;48.722;8.110;2022-08-19T04:28:49;21.20;99.90
7472;DHT22;3777;48.722;8.110;2022-08-19T04:31:19;21.20;99.90
7472;DHT22;3777;48.722;8.110;2022-08-19T04:33:46;21.20;99.90
7472;DHT22;3777;48.722;8.110;2022-08-19T04:36:17;21.20;99.90
7472;DHT22;3777;48.722;8.110;2022-08-19T04:38:46;21.20;99.90
7472;DHT22;3777;48.722;8.110;2022-08-19T04:41:13;21.10;99.90
7472;DHT22;3777;48.722;8.110;2022-08-19T04:43:59;21.10;99.90
7472;DHT22;3777;48.722;8.110;2022-08-19T04:46:26;21.20;99.90
7472;DHT22;3777;48.722;8.110;2022-08-19T04:48:54;21.20;99.90
7472;DHT22;3777;48.722;8.110;2022-08-19T04:51:22;21.20;99.90
7472;DHT22;3777;48.722;8.110;2022-08-19T04:53:50;21.20;99.90
7472;DHT22;3777;48.722;8.110;2022-08-19T04:56:18;21.20;99.90
7472;DHT22;3777;48.722;8.110;2022-08-19T04:58:46;21.30;99.90
7472;DHT22;3777;48.722;8.110;2022-08-19T05:01:19;21.40;99.90
7472;DHT22;3777;48.722;8.110;2022-08-19T05:03:46;21.40;99.90
7472;DHT22;3777;48.722;8.110;2022-08-19T05:06:14;21.50;99.90
7472;DHT22;3777;48.722;8.110;2022-08-19T05:08:42;21.50;99.90
7472;DHT22;3777;48.722;8.110;2022-08-19T05:11:14;21.60;99.90
7472;DHT22;3777;48.722;8.110;2022-08-19T05:13:41;21.60;99.90
7472;DHT22;3777;48.722;8.110;2022-08-19T05:16:10;21.70;99.90
7472;DHT22;3777;48.722;8.110;2022-08-19T05:18:39;21.60;99.90
7472;DHT22;3777;48.722;8.110;2022-08-19T05:21:25;21.70;99.90
7472;DHT22;3777;48.722;8.110;2022-08-19T05:24:09;21.80;99.90
7472;DHT22;3777;48.722;8.110;2022-08-19T05:26:37;21.80;99.90
7472;DHT22;3777;48.722;8.110;2022-08-19T05:29:05;21.80;99.90
7472;DHT22;3777;48.722;8.110;2022-08-19T05:31:33;21.90;99.90
7472;DHT22;3777;48.722;8.110;2022-08-19T05:34:02;21.90;99.90
7472;DHT22;3777;48.722;8.110;2022-08-19T05:36:34;22.00;99.90
7472;DHT22;3777;48.722;8.110;2022-08-19T05:39:02;22.00;99.90
7472;DHT22;3777;48.722;8.110;2022-08-19T05:41:29;22.00;99.90
7472;DHT22;3777;48.722;8.110;2022-08-19T05:43:57;22.10;99.90
7472;DHT22;3777;48.722;8.110;2022-08-19T05:46:24;22.10;99.90
7472;DHT22;3777;48.722;8.110;2022-08-19T05:48:51;22.10;99.90
7472;DHT22;3777;48.722;8.110;2022-08-19T05:51:20;22.00;99.90
7472;DHT22;3777;48.722;8.110;2022-08-19T05:53:48;22.00;99.90
7472;DHT22;3777;48.722;8.110;2022-08-19T05:56:16;22.00;99.90
7472;DHT22;3777;48.722;8.110;2022-08-19T05:58:44;22.00;99.90
7472;DHT22;3777;48.722;8.110;2022-08-19T06:01:13;22.10;99.90
7472;DHT22;3777;48.722;8.110;2022-08-19T06:03:40;22.10;99.90
7472;DHT22;3777;48.722;8.110;2022-08-19T06:06:08;22.10;99.90
7472;DHT22;3777;48.722;8.110;2022-08-19T06:08:38;22.20;99.90
7472;DHT22;3777;48.722;8.110;2022-08-19T06:11:18;22.20;99.90
7472;DHT22;3777;48.722;8.110;2022-08-19T06:13:46;22.10;99.90
7472;DHT22;3777;48.722;8.110;2022-08-19T06:16:16;22.20;99.90
7472;DHT22;3777;48.722;8.110;2022-08-19T06:18:48;22.00;99.90
7472;DHT22;3777;48.722;8.110;2022-08-19T06:21:17;22.00;99.90
7472;DHT22;3777;48.722;8.110;2022-08-19T06:23:47;22.00;99.90
7472;DHT22;3777;48.722;8.110;2022-08-19T06:26:14;22.00;99.90
7472;DHT22;3777;48.722;8.110;2022-08-19T06:28:42;22.00;99.90
7472;DHT22;3777;48.722;8.110;2022-08-19T06:31:12;22.00;99.90
7472;DHT22;3777;48.722;8.110;2022-08-19T06:33:40;22.00;99.90
7472;DHT22;3777;48.722;8.110;2022-08-19T06:36:08;22.00;99.90
7472;DHT22;3777;48.722;8.110;2022-08-19T06:38:42;22.10;99.90
7472;DHT22;3777;48.722;8.110;2022-08-19T06:41:10;22.10;99.90
7472;DHT22;3777;48.722;8.110;2022-08-19T06:43:37;22.10;99.90
7472;DHT22;3777;48.722;8.110;2022-08-19T06:46:10;22.30;99.90
7472;DHT22;3777;48.722;8.110;2022-08-19T06:48:37;22.40;99.90
7472;DHT22;3777;48.722;8.110;2022-08-19T06:51:04;22.50;99.90
7472;DHT22;3777;48.722;8.110;2022-08-19T06:53:32;22.70;99.90
7472;DHT22;3777;48.722;8.110;2022-08-19T06:55:59;22.80;99.90
7472;DHT22;3777;48.722;8.110;2022-08-19T06:58:29;23.00;99.90
7472;DHT22;3777;48.722;8.110;2022-08-19T07:00:59;23.20;99.90
7472;DHT22;3777;48.722;8.110;2022-08-19T07:03:29;23.30;99.90
7472;DHT22;3777;48.722;8.110;2022-08-19T07:05:58;23.40;99.90
7472;DHT22;3777;48.722;8.110;2022-08-19T07:08:28;23.50;99.90
7472;DHT22;3777;48.722;8.110;2022-08-19T07:10:55;23.50;99.90
7472;DHT22;3777;48.722;8.110;2022-08-19T07:13:22;23.20;99.90
7472;DHT22;3777;48.722;8.110;2022-08-19T07:15:51;23.10;99.90
7472;DHT22;3777;48.722;8.110;2022-08-19T07:18:18;23.30;99.90
7472;DHT22;3777;48.722;8.110;2022-08-19T07:20:47;23.50;99.90
7472;DHT22;3777;48.722;8.110;2022-08-19T07:23:14;23.50;99.90
7472;DHT22;3777;48.722;8.110;2022-08-19T07:25:41;23.50;99.90
7472;DHT22;3777;48.722;8.110;2022-08-19T07:28:08;23.70;99.90
7472;DHT22;3777;48.722;8.110;2022-08-19T07:30:38;23.90;99.90
7472;DHT22;3777;48.722;8.110;2022-08-19T07:33:07;24.00;99.90
7472;DHT22;3777;48.722;8.110;2022-08-19T07:35:34;24.10;99.90
7472;DHT22;3777;48.722;8.110;2022-08-19T07:38:02;24.30;99.90
7472;DHT22;3777;48.722;8.110;2022-08-19T07:40:30;24.40;99.90
7472;DHT22;3777;48.722;8.110;2022-08-19T07:42:57;24.20;99.90
7472;DHT22;3777;48.722;8.110;2022-08-19T07:45:24;23.90;99.90
7472;DHT22;3777;48.722;8.110;2022-08-19T07:47:52;23.80;99.90
7472;DHT22;3777;48.722;8.110;2022-08-19T07:50:21;23.70;99.90
7472;DHT22;3777;48.722;8.110;2022-08-19T07:52:49;23.70;99.90
7472;DHT22;3777;48.722;8.110;2022-08-19T07:55:18;23.60;99.90
7472;DHT22;3777;48.722;8.110;2022-08-19T07:57:45;23.60;99.90
7472;DHT22;3777;48.722;8.110;2022-08-19T08:00:13;23.80;99.90
7472;DHT22;3777;48.722;8.110;2022-08-19T08:02:41;24.00;99.90
7472;DHT22;3777;48.722;8.110;2022-08-19T08:05:09;23.70;99.90
7472;DHT22;3777;48.722;8.110;2022-08-19T08:07:55;23.70;99.90
7472;DHT22;3777;48.722;8.110;2022-08-19T08:10:39;23.80;99.90
7472;DHT22;3777;48.722;8.110;2022-08-19T08:13:06;23.60;99.90
7472;DHT22;3777;48.722;8.110;2022-08-19T08:15:34;23.60;99.90
7472;DHT22;3777;48.722;8.110;2022-08-19T08:18:02;23.70;99.90
7472;DHT22;3777;48.722;8.110;2022-08-19T08:20:30;23.70;99.90
7472;DHT22;3777;48.722;8.110;2022-08-19T08:22:58;23.70;99.90
7472;DHT22;3777;48.722;8.110;2022-08-19T08:25:43;23.70;99.90
7472;DHT22;3777;48.722;8.110;2022-08-19T08:28:10;24.00;99.90
7472;DHT22;3777;48.722;8.110;2022-08-19T08:30:37;24.30;99.90
7472;DHT22;3777;48.722;8.110;2022-08-19T08:33:07;24.50;99.90
7472;DHT22;3777;48.722;8.110;2022-08-19T08:35:34;24.80;99.90
7472;DHT22;3777;48.722;8.110;2022-08-19T08:38:03;25.10;99.90
7472;DHT22;3777;48.722;8.110;2022-08-19T08:40:37;25.20;99.90
7472;DHT22;3777;48.722;8.110;2022-08-19T08:43:07;24.80;99.90
7472;DHT22;3777;48.722;8.110;2022-08-19T08:45:47;25.00;99.90
7472;DHT22;3777;48.722;8.110;2022-08-19T08:48:21;25.40;99.90
7472;DHT22;3777;48.722;8.110;2022-08-19T08:50:49;25.70;99.90
7472;DHT22;3777;48.722;8.110;2022-08-19T08:53:20;25.80;99.90
7472;DHT22;3777;48.722;8.110;2022-08-19T08:55:48;25.60;99.90
7472;DHT22;3777;48.722;8.110;2022-08-19T08:58:21;25.60;99.90
7472;DHT22;3777;48.722;8.110;2022-08-19T09:00:50;25.40;99.90
7472;DHT22;3777;48.722;8.110;2022-08-19T09:03:20;25.90;99.90
7472;DHT22;3777;48.722;8.110;2022-08-19T09:05:55;26.10;99.90
7472;DHT22;3777;48.722;8.110;2022-08-19T09:08:35;26.40;99.90
7472;DHT22;3777;48.722;8.110;2022-08-19T09:11:08;26.80;99.90
7472;DHT22;3777;48.722;8.110;2022-08-19T09:13:41;27.00;99.90
7472;DHT22;3777;48.722;8.110;2022-08-19T09:16:12;27.30;99.90
7472;DHT22;3777;48.722;8.110;2022-08-19T09:18:42;27.90;99.90
7472;DHT22;3777;48.722;8.110;2022-08-19T09:21:12;27.60;99.90
7472;DHT22;3777;48.722;8.110;2022-08-19T09:23:41;28.00;99.90
7472;DHT22;3777;48.722;8.110;2022-08-19T09:26:11;28.60;99.90
7472;DHT22;3777;48.722;8.110;2022-08-19T09:28:39;28.90;99.90
7472;DHT22;3777;48.722;8.110;2022-08-19T09:31:09;29.90;99.90
7472;DHT22;3777;48.722;8.110;2022-08-19T09:33:36;29.90;99.90
7472;DHT22;3777;48.722;8.110;2022-08-19T09:36:05;30.50;99.90
7472;DHT22;3777;48.722;8.110;2022-08-19T09:38:34;30.90;99.90
7472;DHT22;3777;48.722;8.110;2022-08-19T09:41:07;31.60;99.90
7472;DHT22;3777;48.722;8.110;2022-08-19T09:43:35;32.30;99.90
7472;DHT22;3777;48.722;8.110;2022-08-19T09:46:04;32.80;99.90
7472;DHT22;3777;48.722;8.110;2022-08-19T09:48:32;33.30;99.90
7472;DHT22;3777;48.722;8.110;2022-08-19T09:51:04;34.10;96.70
7472;DHT22;3777;48.722;8.110;2022-08-19T09:53:33;34.80;94.30
7472;DHT22;3777;48.722;8.110;2022-08-19T09:56:00;34.80;94.10
7472;DHT22;3777;48.722;8.110;2022-08-19T09:58:29;35.40;92.40
7472;DHT22;3777;48.722;8.110;2022-08-19T10:00:57;35.50;90.40
7472;DHT22;3777;48.722;8.110;2022-08-19T10:03:26;36.20;90.90
7472;DHT22;3777;48.722;8.110;2022-08-19T10:05:53;36.10;83.00
7472;DHT22;3777;48.722;8.110;2022-08-19T10:08:22;37.00;82.80
7472;DHT22;3777;48.722;8.110;2022-08-19T10:10:49;37.80;78.50
7472;DHT22;3777;48.722;8.110;2022-08-19T10:13:19;38.30;75.40
7472;DHT22;3777;48.722;8.110;2022-08-19T10:15:49;36.90;72.00
7472;DHT22;3777;48.722;8.110;2022-08-19T10:18:17;36.10;71.30
7472;DHT22;3777;48.722;8.110;2022-08-19T10:20:45;35.60;72.00
7472;DHT22;3777;48.722;8.110;2022-08-19T10:23:13;35.60;72.00
7472;DHT22;3777;48.722;8.110;2022-08-19T10:25:40;35.20;71.80
7472;DHT22;3777;48.722;8.110;2022-08-19T10:28:09;34.20;72.40
7472;DHT22;3777;48.722;8.110;2022-08-19T10:30:37;34.00;75.70
7472;DHT22;3777;48.722;8.110;2022-08-19T10:33:06;33.80;78.10
7472;DHT22;3777;48.722;8.110;2022-08-19T10:35:33;33.50;78.80
7472;DHT22;3777;48.722;8.110;2022-08-19T10:38:02;33.30;78.00
7472;DHT22;3777;48.722;8.110;2022-08-19T10:40:29;33.10;78.40
7472;DHT22;3777;48.722;8.110;2022-08-19T10:42:56;32.60;77.50
7472;DHT22;3777;48.722;8.110;2022-08-19T10:45:23;32.10;78.00
7472;DHT22;3777;48.722;8.110;2022-08-19T10:47:52;31.60;82.50
7472;DHT22;3777;48.722;8.110;2022-08-19T10:50:21;31.30;84.10
7472;DHT22;3777;48.722;8.110;2022-08-19T10:53:06;30.90;87.60
7472;DHT22;3777;48.722;8.110;2022-08-19T10:55:35;30.60;87.90
7472;DHT22;3777;48.722;8.110;2022-08-19T10:58:20;30.40;90.60
7472;DHT22;3777;48.722;8.110;2022-08-19T11:00:52;30.10;92.10
7472;DHT22;3777;48.722;8.110;2022-08-19T11:03:20;30.40;91.90
7472;DHT22;3777;48.722;8.110;2022-08-19T11:05:57;31.00;92.60
7472;DHT22;3777;48.722;8.110;2022-08-19T11:08:24;31.80;89.30
7472;DHT22;3777;48.722;8.110;2022-08-19T11:10:53;32.20;89.00
7472;DHT22;3777;48.722;8.110;2022-08-19T11:13:22;32.40;87.30
7472;DHT22;3777;48.722;8.110;2022-08-19T11:15:57;32.50;85.90
7472;DHT22;3777;48.722;8.110;2022-08-19T11:18:24;32.60;88.60
7472;DHT22;3777;48.722;8.110;2022-08-19T11:20:53;32.50;86.50
7472;DHT22;3777;48.722;8.110;2022-08-19T11:23:20;32.10;84.90
7472;DHT22;3777;48.722;8.110;2022-08-19T11:25:47;31.50;89.50
7472;DHT22;3777;48.722;8.110;2022-08-19T11:28:14;31.50;84.70
7472;DHT22;3777;48.722;8.110;2022-08-19T11:30:41;31.40;83.60
7472;DHT22;3777;48.722;8.110;2022-08-19T11:33:08;31.30;83.00
7472;DHT22;3777;48.722;8.110;2022-08-19T11:35:39;31.40;83.50
7472;DHT22;3777;48.722;8.110;2022-08-19T11:38:08;31.40;84.90
7472;DHT22;3777;48.722;8.110;2022-08-19T11:40:35;31.60;85.30
7472;DHT22;3777;48.722;8.110;2022-08-19T11:43:02;31.60;85.20
7472;DHT22;3777;48.722;8.110;2022-08-19T11:45:30;31.70;84.60
7472;DHT22;3777;48.722;8.110;2022-08-19T11:47:57;31.90;84.60
7472;DHT22;3777;48.722;8.110;2022-08-19T11:50:24;32.00;85.50
7472;DHT22;3777;48.722;8.110;2022-08-19T11:52:54;32.20;86.40
7472;DHT22;3777;48.722;8.110;2022-08-19T11:55:23;32.30;88.00
7472;DHT22;3777;48.722;8.110;2022-08-19T11:57:50;32.10;85.00
7472;DHT22;3777;48.722;8.110;2022-08-19T12:00:17;31.70;85.70
7472;DHT22;3777;48.722;8.110;2022-08-19T12:02:45;31.80;87.30
7472;DHT22;3777;48.722;8.110;2022-08-19T12:05:12;31.20;88.60
7472;DHT22;3777;48.722;8.110;2022-08-19T12:07:40;31.20;86.90
7472;DHT22;3777;48.722;8.110;2022-08-19T12:10:09;31.20;86.20
7472;DHT22;3777;48.722;8.110;2022-08-19T12:12:37;31.00;88.70
7472;DHT22;3777;48.722;8.110;2022-08-19T12:15:08;31.20;89.30
7472;DHT22;3777;48.722;8.110;2022-08-19T12:17:36;31.40;87.30
7472;DHT22;3777;48.722;8.110;2022-08-19T12:20:04;30.90;88.30
7472;DHT22;3777;48.722;8.110;2022-08-19T12:22:32;30.70;85.10
7472;DHT22;3777;48.722;8.110;2022-08-19T12:25:00;30.90;84.00
7472;DHT22;3777;48.722;8.110;2022-08-19T12:27:27;30.40;89.50
7472;DHT22;3777;48.722;8.110;2022-08-19T12:29:56;30.20;90.20
7472;DHT22;3777;48.722;8.110;2022-08-19T12:32:23;30.30;91.10
7472;DHT22;3777;48.722;8.110;2022-08-19T12:34:52;30.10;90.00
7472;DHT22;3777;48.722;8.110;2022-08-19T12:37:20;30.40;89.00
7472;DHT22;3777;48.722;8.110;2022-08-19T12:39:47;30.30;88.70
7472;DHT22;3777;48.722;8.110;2022-08-19T12:42:14;30.50;90.10
7472;DHT22;3777;48.722;8.110;2022-08-19T12:44:43;30.50;87.20
7472;DHT22;3777;48.722;8.110;2022-08-19T12:47:13;30.00;88.30
7472;DHT22;3777;48.722;8.110;2022-08-19T12:49:40;30.00;89.60
7472;DHT22;3777;48.722;8.110;2022-08-19T12:52:08;30.30;90.50
7472;DHT22;3777;48.722;8.110;2022-08-19T12:54:36;30.40;90.60
7472;DHT22;3777;48.722;8.110;2022-08-19T12:57:05;30.10;89.00
7472;DHT22;3777;48.722;8.110;2022-08-19T12:59:33;29.60;88.10
7472;DHT22;3777;48.722;8.110;2022-08-19T13:02:02;29.40;90.50
7472;DHT22;3777;48.722;8.110;2022-08-19T13:04:32;29.30;90.90
7472;DHT22;3777;48.722;8.110;2022-08-19T13:07:00;28.90;88.60
7472;DHT22;3777;48.722;8.110;2022-08-19T13:09:27;29.00;91.60
7472;DHT22;3777;48.722;8.110;2022-08-19T13:11:54;29.00;90.60
7472;DHT22;3777;48.722;8.110;2022-08-19T13:14:22;29.10;91.80
7472;DHT22;3777;48.722;8.110;2022-08-19T13:16:49;29.10;88.50
7472;DHT22;3777;48.722;8.110;2022-08-19T13:19:16;29.10;87.90
7472;DHT22;3777;48.722;8.110;2022-08-19T13:21:49;29.10;86.60
7472;DHT22;3777;48.722;8.110;2022-08-19T13:24:17;29.10;87.10
7472;DHT22;3777;48.722;8.110;2022-08-19T13:26:43;29.20;90.60
7472;DHT22;3777;48.722;8.110;2022-08-19T13:29:10;29.20;83.90
7472;DHT22;3777;48.722;8.110;2022-08-19T13:31:55;29.40;85.50
7472;DHT22;3777;48.722;8.110;2022-08-19T13:34:39;29.70;88.10
7472;DHT22;3777;48.722;8.110;2022-08-19T13:37:08;30.00;84.40
7472;DHT22;3777;48.722;8.110;2022-08-19T13:39:35;30.20;84.60
7472;DHT22;3777;48.722;8.110;2022-08-19T13:42:03;30.20;82.90
7472;DHT22;3777;48.722;8.110;2022-08-19T13:44:30;30.10;82.40
7472;DHT22;3777;48.722;8.110;2022-08-19T13:47:00;29.90;83.50
7472;DHT22;3777;48.722;8.110;2022-08-19T13:49:31;29.70;83.70
7472;DHT22;3777;48.722;8.110;2022-08-19T13:51:58;29.60;86.50
7472;DHT22;3777;48.722;8.110;2022-08-19T13:54:26;29.60;84.80
7472;DHT22;3777;48.722;8.110;2022-08-19T13:56:53;29.50;86.30
7472;DHT22;3777;48.722;8.110;2022-08-19T13:59:20;29.70;84.80
7472;DHT22;3777;48.722;8.110;2022-08-19T14:01:47;29.70;82.00
7472;DHT22;3777;48.722;8.110;2022-08-19T14:04:15;29.60;78.80
7472;DHT22;3777;48.722;8.110;2022-08-19T14:06:42;29.70;80.70
7472;DHT22;3777;48.722;8.110;2022-08-19T14:09:09;29.80;80.40
7472;DHT22;3777;48.722;8.110;2022-08-19T14:11:37;30.00;80.90
7472;DHT22;3777;48.722;8.110;2022-08-19T14:14:04;30.20;78.00
7472;DHT22;3777;48.722;8.110;2022-08-19T14:16:31;30.40;79.40
7472;DHT22;3777;48.722;8.110;2022-08-19T14:18:59;30.50;75.60
7472;DHT22;3777;48.722;8.110;2022-08-19T14:21:26;30.60;76.30
7472;DHT22;3777;48.722;8.110;2022-08-19T14:23:53;30.80;72.90
7472;DHT22;3777;48.722;8.110;2022-08-19T14:26:22;30.90;72.20
7472;DHT22;3777;48.722;8.110;2022-08-19T14:28:50;31.10;70.90
7472;DHT22;3777;48.722;8.110;2022-08-19T14:31:18;31.30;71.30
7472;DHT22;3777;48.722;8.110;2022-08-19T14:33:47;31.50;69.60
7472;DHT22;3777;48.722;8.110;2022-08-19T14:36:16;31.60;69.50
7472;DHT22;3777;48.722;8.110;2022-08-19T14:38:43;31.50;70.70
7472;DHT22;3777;48.722;8.110;2022-08-19T14:41:12;31.20;69.60
7472;DHT22;3777;48.722;8.110;2022-08-19T14:43:42;31.00;69.70
7472;DHT22;3777;48.722;8.110;2022-08-19T14:46:14;30.80;69.60
7472;DHT22;3777;48.722;8.110;2022-08-19T14:48:41;30.70;68.80
7472;DHT22;3777;48.722;8.110;2022-08-19T14:51:08;30.70;71.40
7472;DHT22;3777;48.722;8.110;2022-08-19T14:53:36;30.70;70.20
7472;DHT22;3777;48.722;8.110;2022-08-19T14:56:08;30.80;69.80
7472;DHT22;3777;48.722;8.110;2022-08-19T14:58:35;30.70;71.40
7472;DHT22;3777;48.722;8.110;2022-08-19T15:01:03;30.70;68.10
7472;DHT22;3777;48.722;8.110;2022-08-19T15:03:31;30.60;70.60
7472;DHT22;3777;48.722;8.110;2022-08-19T15:05:59;30.60;67.10
7472;DHT22;3777;48.722;8.110;2022-08-19T15:08:28;30.60;70.10
7472;DHT22;3777;48.722;8.110;2022-08-19T15:10:57;30.60;72.20
7472;DHT22;3777;48.722;8.110;2022-08-19T15:13:25;30.30;66.80
7472;DHT22;3777;48.722;8.110;2022-08-19T15:15:52;30.30;67.30
7472;DHT22;3777;48.722;8.110;2022-08-19T15:18:20;30.20;70.50
7472;DHT22;3777;48.722;8.110;2022-08-19T15:20:49;30.20;71.90
7472;DHT22;3777;48.722;8.110;2022-08-19T15:23:17;30.10;69.80
7472;DHT22;3777;48.722;8.110;2022-08-19T15:25:45;30.00;70.90
7472;DHT22;3777;48.722;8.110;2022-08-19T15:28:12;29.90;72.40
7472;DHT22;3777;48.722;8.110;2022-08-19T15:30:41;29.80;73.40
7472;DHT22;3777;48.722;8.110;2022-08-19T15:33:10;29.70;74.90
7472;DHT22;3777;48.722;8.110;2022-08-19T15:35:39;29.70;72.60
7472;DHT22;3777;48.722;8.110;2022-08-19T15:38:09;29.60;73.30
7472;DHT22;3777;48.722;8.110;2022-08-19T15:40:38;29.30;73.40
7472;DHT22;3777;48.722;8.110;2022-08-19T15:43:06;29.30;76.30
7472;DHT22;3777;48.722;8.110;2022-08-19T15:45:33;29.20;81.20
7472;DHT22;3777;48.722;8.110;2022-08-19T15:48:01;29.10;78.60
7472;DHT22;3777;48.722;8.110;2022-08-19T15:50:29;29.20;79.00
7472;DHT22;3777;48.722;8.110;2022-08-19T15:53:00;29.20;77.10
7472;DHT22;3777;48.722;8.110;2022-08-19T15:55:31;29.10;79.00
7472;DHT22;3777;48.722;8.110;2022-08-19T15:57:59;29.00;78.20
7472;DHT22;3777;48.722;8.110;2022-08-19T16:00:43;29.10;77.90
7472;DHT22;3777;48.722;8.110;2022-08-19T16:03:28;29.00;78.30
7472;DHT22;3777;48.722;8.110;2022-08-19T16:06:12;28.90;77.60
7472;DHT22;3777;48.722;8.110;2022-08-19T16:08:51;28.80;79.10
7472;DHT22;3777;48.722;8.110;2022-08-19T16:11:23;28.60;78.60
7472;DHT22;3777;48.722;8.110;2022-08-19T16:13:52;28.70;78.00